sensor_id;sensor_type;location;lat;lon;timestamp;pressure;altitude;pressure_sealevel;temperature;humidity
70916;BME280;58557;50.982;-3.222;2023-05-01T00:02:14;101193.72;;;13.92;55.00
70916;BME280;58557;50.982;-3.222;2023-05-01T00:04:39;101194.93;;;14.60;54.96
70916;BME280;58557;50.982;-3.222;2023-05-01T00:07:09;101191.95;;;13.66;56.72
70916;BME280;58557;50.982;-3.222;2023-05-01T00:09:31;101192.16;;;14.26;55.70
70916;BME280;58557;50.982;-3.222;2023-05-01T00:11:56;101190.00;;;15.46;53.81
70916;BME280;58557;50.982;-3.222;2023-05-01T00:14:22;101186.42;;;13.29;57.96
70916;BME280;58557;50.982;-3.222;2023-05-01T00:16:48;101184.31;;;12.18;61.87
70916;BME280;58557;50.982;-3.222;2023-05-01T00:19:14;101182.12;;;12.23;62.46
70916;BME280;58557;50.982;-3.222;2023-05-01T00:21:39;101176.74;;;13.88;58.24
70916;BME280;58557;50.982;-3.222;2023-05-01T00:24:05;101178.51;;;14.46;55.94
70916;BME280;58557;50.982;-3.222;2023-05-01T00:26:30;101174.48;;;13.73;57.54
70916;BME280;58557;50.982;-3.222;2023-05-01T00:28:56;101171.32;;;14.33;56.00
70916;BME280;58557;50.982;-3.222;2023-05-01T00:31:23;101169.90;;;14.14;55.42
70916;BME280;58557;50.982;-3.222;2023-05-01T00:33:47;101169.24;;;15.13;53.82
70916;BME280;58557;50.982;-3.222;2023-05-01T00:36:12;101168.59;;;14.27;56.00
70916;BME280;58557;50.982;-3.222;2023-05-01T00:38:38;101165.86;;;13.59;58.02
70916;BME280;58557;50.982;-3.222;2023-05-01T00:41:04;101162.74;;;13.90;56.71
70916;BME280;58557;50.982;-3.222;2023-05-01T00:43:29;101155.57;;;15.36;53.91
70916;BME280;58557;50.982;-3.222;2023-05-01T00:45:55;101144.47;;;15.99;52.23
70916;BME280;58557;50.982;-3.222;2023-05-01T00:48:20;101140.20;;;16.12;51.10
70916;BME280;58557;50.982;-3.222;2023-05-01T00:50:47;101144.35;;;15.85;51.72
70916;BME280;58557;50.982;-3.222;2023-05-01T00:53:12;101143.50;;;15.72;51.27
70916;BME280;58557;50.982;-3.222;2023-05-01T00:55:41;101144.70;;;15.50;51.40
70916;BME280;58557;50.982;-3.222;2023-05-01T00:58:03;101150.14;;;15.55;52.60
70916;BME280;58557;50.982;-3.222;2023-05-01T01:00:29;101154.00;;;15.85;52.23
70916;BME280;58557;50.982;-3.222;2023-05-01T01:02:55;101152.08;;;15.42;51.36
70916;BME280;58557;50.982;-3.222;2023-05-01T01:05:21;101151.55;;;15.52;52.72
70916;BME280;58557;50.982;-3.222;2023-05-01T01:07:52;101153.03;;;15.19;54.46
70916;BME280;58557;50.982;-3.222;2023-05-01T01:10:18;101153.60;;;15.14;53.01
70916;BME280;58557;50.982;-3.222;2023-05-01T01:12:45;101156.81;;;14.51;55.52
70916;BME280;58557;50.982;-3.222;2023-05-01T01:15:11;101151.19;;;13.65;59.83
70916;BME280;58557;50.982;-3.222;2023-05-01T01:17:33;101149.06;;;15.09;55.82
70916;BME280;58557;50.982;-3.222;2023-05-01T01:22:22;101145.84;;;14.29;56.60
70916;BME280;58557;50.982;-3.222;2023-05-01T01:29:46;101136.74;;;12.45;64.15
70916;BME280;58557;50.982;-3.222;2023-05-01T01:32:09;101133.74;;;13.54;60.02
70916;BME280;58557;50.982;-3.222;2023-05-01T01:34:32;101131.26;;;13.03;62.19
70916;BME280;58557;50.982;-3.222;2023-05-01T01:36:58;101131.97;;;13.14;62.07
70916;BME280;58557;50.982;-3.222;2023-05-01T01:39:28;101131.43;;;13.05;62.43
70916;BME280;58557;50.982;-3.222;2023-05-01T01:41:49;101131.46;;;14.37;57.38
70916;BME280;58557;50.982;-3.222;2023-05-01T01:44:15;101124.92;;;14.85;54.49
70916;BME280;58557;50.982;-3.222;2023-05-01T01:46:38;101116.45;;;15.96;51.40
70916;BME280;58557;50.982;-3.222;2023-05-01T01:49:06;101111.07;;;15.64;52.64
70916;BME280;58557;50.982;-3.222;2023-05-01T01:51:28;101109.02;;;16.34;50.09
70916;BME280;58557;50.982;-3.222;2023-05-01T01:53:54;101107.67;;;16.78;49.57
70916;BME280;58557;50.982;-3.222;2023-05-01T01:56:20;101107.32;;;16.28;51.25
70916;BME280;58557;50.982;-3.222;2023-05-01T01:58:44;101107.61;;;16.07;50.31
70916;BME280;58557;50.982;-3.222;2023-05-01T02:01:09;101108.39;;;15.30;51.83
70916;BME280;58557;50.982;-3.222;2023-05-01T02:03:37;101109.38;;;16.06;50.78
70916;BME280;58557;50.982;-3.222;2023-05-01T02:06:01;101109.36;;;16.19;49.83
70916;BME280;58557;50.982;-3.222;2023-05-01T02:08:28;101107.56;;;17.07;49.11
70916;BME280;58557;50.982;-3.222;2023-05-01T02:10:53;101105.27;;;17.11;47.75
70916;BME280;58557;50.982;-3.222;2023-05-01T02:13:19;101099.38;;;16.79;48.49
70916;BME280;58557;50.982;-3.222;2023-05-01T02:15:44;101098.12;;;17.31;46.65
70916;BME280;58557;50.982;-3.222;2023-05-01T02:18:10;101092.40;;;17.54;46.13
70916;BME280;58557;50.982;-3.222;2023-05-01T02:20:37;101095.99;;;17.37;45.98
70916;BME280;58557;50.982;-3.222;2023-05-01T02:23:02;101096.53;;;17.83;45.52
70916;BME280;58557;50.982;-3.222;2023-05-01T02:25:28;101094.30;;;17.92;45.25
70916;BME280;58557;50.982;-3.222;2023-05-01T02:27:55;101092.47;;;17.59;46.39
70916;BME280;58557;50.982;-3.222;2023-05-01T02:30:18;101090.84;;;17.47;45.04
70916;BME280;58557;50.982;-3.222;2023-05-01T02:32:44;101088.41;;;18.11;45.36
70916;BME280;58557;50.982;-3.222;2023-05-01T02:35:10;101086.79;;;17.35;45.73
70916;BME280;58557;50.982;-3.222;2023-05-01T02:37:35;101086.01;;;17.67;45.86
70916;BME280;58557;50.982;-3.222;2023-05-01T02:40:02;101087.70;;;17.82;45.43
70916;BME280;58557;50.982;-3.222;2023-05-01T02:42:27;101090.07;;;17.17;47.39
70916;BME280;58557;50.982;-3.222;2023-05-01T02:44:56;101082.10;;;17.75;46.27
70916;BME280;58557;50.982;-3.222;2023-05-01T02:47:21;101081.40;;;18.26;46.00
70916;BME280;58557;50.982;-3.222;2023-05-01T02:49:44;101079.14;;;17.71;46.47
70916;BME280;58557;50.982;-3.222;2023-05-01T02:52:10;101080.59;;;18.10;46.54
70916;BME280;58557;50.982;-3.222;2023-05-01T02:54:35;101079.20;;;17.42;46.47
70916;BME280;58557;50.982;-3.222;2023-05-01T02:57:03;101083.00;;;17.11;48.14
70916;BME280;58557;50.982;-3.222;2023-05-01T02:59:26;101078.45;;;18.19;46.16
70916;BME280;58557;50.982;-3.222;2023-05-01T03:01:52;101078.83;;;17.45;46.40
70916;BME280;58557;50.982;-3.222;2023-05-01T03:04:17;101074.84;;;17.53;47.62
70916;BME280;58557;50.982;-3.222;2023-05-01T03:06:43;101079.77;;;16.56;47.98
70916;BME280;58557;50.982;-3.222;2023-05-01T03:09:09;101077.69;;;16.61;49.77
70916;BME280;58557;50.982;-3.222;2023-05-01T03:11:34;101077.54;;;17.11;47.49
70916;BME280;58557;50.982;-3.222;2023-05-01T03:14:00;101078.88;;;17.19;48.55
70916;BME280;58557;50.982;-3.222;2023-05-01T03:16:26;101079.90;;;16.66;49.95
70916;BME280;58557;50.982;-3.222;2023-05-01T03:18:51;101078.01;;;16.86;48.61
70916;BME280;58557;50.982;-3.222;2023-05-01T03:21:17;101074.60;;;16.89;49.20
70916;BME280;58557;50.982;-3.222;2023-05-01T03:23:43;101070.21;;;17.62;48.23
70916;BME280;58557;50.982;-3.222;2023-05-01T03:26:08;101071.24;;;16.89;48.79
70916;BME280;58557;50.982;-3.222;2023-05-01T03:28:34;101071.21;;;17.31;47.59
70916;BME280;58557;50.982;-3.222;2023-05-01T03:30:59;101067.44;;;15.95;50.15
70916;BME280;58557;50.982;-3.222;2023-05-01T03:33:24;101068.29;;;16.45;48.69
70916;BME280;58557;50.982;-3.222;2023-05-01T03:35:58;101067.19;;;17.55;48.10
70916;BME280;58557;50.982;-3.222;2023-05-01T03:38:16;101065.22;;;16.96;48.51
70916;BME280;58557;50.982;-3.222;2023-05-01T03:40:42;101063.18;;;17.00;49.61
70916;BME280;58557;50.982;-3.222;2023-05-01T03:43:07;101062.33;;;17.26;49.02
70916;BME280;58557;50.982;-3.222;2023-05-01T03:45:33;101056.92;;;16.97;50.19
70916;BME280;58557;50.982;-3.222;2023-05-01T03:47:58;101058.17;;;16.27;51.39
70916;BME280;58557;50.982;-3.222;2023-05-01T03:50:24;101054.41;;;16.23;50.56
70916;BME280;58557;50.982;-3.222;2023-05-01T03:52:50;101050.80;;;15.98;51.76
70916;BME280;58557;50.982;-3.222;2023-05-01T03:55:16;101046.64;;;16.74;51.34
70916;BME280;58557;50.982;-3.222;2023-05-01T03:57:41;101049.92;;;15.20;53.50
70916;BME280;58557;50.982;-3.222;2023-05-01T04:00:07;101046.25;;;16.45;51.40
70916;BME280;58557;50.982;-3.222;2023-05-01T04:02:31;101046.43;;;16.33;51.30
70916;BME280;58557;50.982;-3.222;2023-05-01T04:04:57;101049.14;;;16.77;50.55
70916;BME280;58557;50.982;-3.222;2023-05-01T04:07:23;101051.78;;;17.06;49.67
70916;BME280;58557;50.982;-3.222;2023-05-01T04:09:48;101051.71;;;15.03;52.63
70916;BME280;58557;50.982;-3.222;2023-05-01T04:12:14;101050.20;;;16.78;50.74
70916;BME280;58557;50.982;-3.222;2023-05-01T04:14:40;101052.46;;;16.16;50.12
70916;BME280;58557;50.982;-3.222;2023-05-01T04:17:05;101057.81;;;16.04;50.78
70916;BME280;58557;50.982;-3.222;2023-05-01T04:19:31;101058.13;;;16.29;51.08
70916;BME280;58557;50.982;-3.222;2023-05-01T04:21:56;101057.45;;;16.82;50.31
70916;BME280;58557;50.982;-3.222;2023-05-01T04:24:22;101057.06;;;16.90;49.55
70916;BME280;58557;50.982;-3.222;2023-05-01T04:26:48;101056.07;;;16.78;49.47
70916;BME280;58557;50.982;-3.222;2023-05-01T04:29:13;101051.58;;;16.44;50.48
70916;BME280;58557;50.982;-3.222;2023-05-01T04:31:39;101058.89;;;16.29;52.35
70916;BME280;58557;50.982;-3.222;2023-05-01T04:34:05;101061.04;;;16.34;51.10
70916;BME280;58557;50.982;-3.222;2023-05-01T04:36:30;101059.11;;;16.30;51.23
70916;BME280;58557;50.982;-3.222;2023-05-01T04:38:55;101059.14;;;16.26;51.68
70916;BME280;58557;50.982;-3.222;2023-05-01T04:41:21;101064.95;;;14.43;57.04
70916;BME280;58557;50.982;-3.222;2023-05-01T04:43:47;101062.29;;;15.23;54.06
70916;BME280;58557;50.982;-3.222;2023-05-01T04:46:12;101062.69;;;15.27;55.04
70916;BME280;58557;50.982;-3.222;2023-05-01T04:48:38;101058.44;;;14.95;56.64
70916;BME280;58557;50.982;-3.222;2023-05-01T04:51:04;101058.70;;;15.30;55.52
70916;BME280;58557;50.982;-3.222;2023-05-01T04:53:29;101058.88;;;15.56;55.27
70916;BME280;58557;50.982;-3.222;2023-05-01T04:55:55;101059.09;;;15.97;53.83
70916;BME280;58557;50.982;-3.222;2023-05-01T04:58:21;101064.52;;;16.13;53.06
70916;BME280;58557;50.982;-3.222;2023-05-01T05:00:46;101068.00;;;15.71;53.56
70916;BME280;58557;50.982;-3.222;2023-05-01T05:03:12;101068.72;;;15.52;55.22
70916;BME280;58557;50.982;-3.222;2023-05-01T05:05:38;101066.00;;;15.00;55.91
70916;BME280;58557;50.982;-3.222;2023-05-01T05:08:03;101065.72;;;14.93;57.42
70916;BME280;58557;50.982;-3.222;2023-05-01T05:10:28;101065.32;;;15.83;54.63
70916;BME280;58557;50.982;-3.222;2023-05-01T05:12:53;101064.93;;;15.95;54.74
70916;BME280;58557;50.982;-3.222;2023-05-01T05:15:19;101066.61;;;15.70;54.31
70916;BME280;58557;50.982;-3.222;2023-05-01T05:17:45;101061.59;;;14.91;56.29
70916;BME280;58557;50.982;-3.222;2023-05-01T05:20:11;101062.91;;;14.65;58.02
70916;BME280;58557;50.982;-3.222;2023-05-01T05:22:35;101063.28;;;15.65;54.99
70916;BME280;58557;50.982;-3.222;2023-05-01T05:25:01;101065.95;;;16.38;52.48
70916;BME280;58557;50.982;-3.222;2023-05-01T05:27:27;101067.79;;;17.08;51.49
70916;BME280;58557;50.982;-3.222;2023-05-01T05:29:52;101069.88;;;16.27;52.34
70916;BME280;58557;50.982;-3.222;2023-05-01T05:32:17;101074.00;;;16.21;53.34
70916;BME280;58557;50.982;-3.222;2023-05-01T05:34:43;101077.90;;;16.61;52.61
70916;BME280;58557;50.982;-3.222;2023-05-01T05:37:08;101074.90;;;14.81;56.31
70916;BME280;58557;50.982;-3.222;2023-05-01T05:39:34;101073.30;;;14.94;55.58
70916;BME280;58557;50.982;-3.222;2023-05-01T05:41:59;101072.86;;;15.98;53.50
70916;BME280;58557;50.982;-3.222;2023-05-01T05:44:25;101070.84;;;15.08;56.76
70916;BME280;58557;50.982;-3.222;2023-05-01T05:46:50;101072.15;;;15.87;55.88
70916;BME280;58557;50.982;-3.222;2023-05-01T05:49:16;101074.98;;;15.01;58.42
70916;BME280;58557;50.982;-3.222;2023-05-01T05:51:41;101079.93;;;15.86;55.55
70916;BME280;58557;50.982;-3.222;2023-05-01T05:54:06;101092.01;;;14.65;57.15
70916;BME280;58557;50.982;-3.222;2023-05-01T05:56:32;101090.34;;;15.80;55.42
70916;BME280;58557;50.982;-3.222;2023-05-01T05:58:57;101094.99;;;13.52;59.59
70916;BME280;58557;50.982;-3.222;2023-05-01T06:01:22;101099.22;;;14.36;60.98
70916;BME280;58557;50.982;-3.222;2023-05-01T06:03:48;101097.36;;;15.51;58.21
70916;BME280;58557;50.982;-3.222;2023-05-01T06:06:13;101103.04;;;15.40;56.84
70916;BME280;58557;50.982;-3.222;2023-05-01T06:08:39;101109.36;;;15.79;56.60
70916;BME280;58557;50.982;-3.222;2023-05-01T06:11:07;101117.46;;;14.05;60.76
70916;BME280;58557;50.982;-3.222;2023-05-01T06:13:30;101108.50;;;16.28;56.49
70916;BME280;58557;50.982;-3.222;2023-05-01T06:15:56;101109.55;;;16.87;52.14
70916;BME280;58557;50.982;-3.222;2023-05-01T06:18:22;101111.24;;;15.23;54.07
70916;BME280;58557;50.982;-3.222;2023-05-01T06:20:47;101110.75;;;17.78;50.93
70916;BME280;58557;50.982;-3.222;2023-05-01T06:23:12;101112.24;;;17.18;51.74
70916;BME280;58557;50.982;-3.222;2023-05-01T06:25:37;101112.54;;;16.76;52.78
70916;BME280;58557;50.982;-3.222;2023-05-01T06:28:03;101114.01;;;15.91;55.38
70916;BME280;58557;50.982;-3.222;2023-05-01T06:30:28;101115.16;;;14.90;56.31
70916;BME280;58557;50.982;-3.222;2023-05-01T06:32:54;101119.48;;;14.01;59.88
70916;BME280;58557;50.982;-3.222;2023-05-01T06:35:19;101123.01;;;14.73;59.71
70916;BME280;58557;50.982;-3.222;2023-05-01T06:37:45;101120.78;;;14.53;59.02
70916;BME280;58557;50.982;-3.222;2023-05-01T06:40:11;101117.42;;;15.67;58.09
70916;BME280;58557;50.982;-3.222;2023-05-01T06:42:36;101127.65;;;15.03;60.03
70916;BME280;58557;50.982;-3.222;2023-05-01T06:45:02;101126.58;;;14.73;61.12
70916;BME280;58557;50.982;-3.222;2023-05-01T06:47:27;101134.86;;;14.49;61.05
70916;BME280;58557;50.982;-3.222;2023-05-01T06:49:53;101137.49;;;14.01;63.80
70916;BME280;58557;50.982;-3.222;2023-05-01T06:52:18;101143.78;;;14.13;63.98
70916;BME280;58557;50.982;-3.222;2023-05-01T06:54:44;101146.71;;;15.14;60.68
70916;BME280;58557;50.982;-3.222;2023-05-01T06:57:09;101150.64;;;13.96;63.82
70916;BME280;58557;50.982;-3.222;2023-05-01T06:59:34;101151.45;;;14.10;61.86
70916;BME280;58557;50.982;-3.222;2023-05-01T07:02:00;101150.96;;;13.46;64.84
70916;BME280;58557;50.982;-3.222;2023-05-01T07:04:25;101152.55;;;14.96;59.84
70916;BME280;58557;50.982;-3.222;2023-05-01T07:06:50;101153.23;;;14.73;61.46
70916;BME280;58557;50.982;-3.222;2023-05-01T07:09:15;101154.32;;;14.87;62.00
70916;BME280;58557;50.982;-3.222;2023-05-01T07:11:41;101152.77;;;14.97;61.01
70916;BME280;58557;50.982;-3.222;2023-05-01T07:14:06;101149.72;;;15.46;59.59
70916;BME280;58557;50.982;-3.222;2023-05-01T07:16:32;101152.08;;;14.56;62.77
70916;BME280;58557;50.982;-3.222;2023-05-01T07:18:58;101147.21;;;14.74;60.64
70916;BME280;58557;50.982;-3.222;2023-05-01T07:21:23;101144.21;;;13.48;64.44
70916;BME280;58557;50.982;-3.222;2023-05-01T07:23:48;101147.58;;;12.86;66.98
70916;BME280;58557;50.982;-3.222;2023-05-01T07:26:14;101148.73;;;14.68;62.83
70916;BME280;58557;50.982;-3.222;2023-05-01T07:28:39;101145.75;;;15.01;60.96
70916;BME280;58557;50.982;-3.222;2023-05-01T07:31:05;101146.88;;;14.34;63.12
70916;BME280;58557;50.982;-3.222;2023-05-01T07:33:31;101150.03;;;14.26;63.34
70916;BME280;58557;50.982;-3.222;2023-05-01T07:35:56;101149.13;;;13.11;67.01
70916;BME280;58557;50.982;-3.222;2023-05-01T07:38:22;101148.10;;;13.60;64.85
70916;BME280;58557;50.982;-3.222;2023-05-01T07:40:47;101157.47;;;12.67;69.28
70916;BME280;58557;50.982;-3.222;2023-05-01T07:43:13;101158.46;;;13.66;65.06
70916;BME280;58557;50.982;-3.222;2023-05-01T07:45:39;101165.74;;;14.79;62.15
70916;BME280;58557;50.982;-3.222;2023-05-01T07:48:04;101164.88;;;13.64;62.94
70916;BME280;58557;50.982;-3.222;2023-05-01T07:50:30;101166.79;;;14.25;62.21
70916;BME280;58557;50.982;-3.222;2023-05-01T07:52:55;101163.92;;;15.00;59.60
70916;BME280;58557;50.982;-3.222;2023-05-01T07:55:22;101160.40;;;16.42;54.40
70916;BME280;58557;50.982;-3.222;2023-05-01T07:57:47;101159.04;;;16.79;52.73
70916;BME280;58557;50.982;-3.222;2023-05-01T08:00:13;101163.53;;;16.49;53.25
70916;BME280;58557;50.982;-3.222;2023-05-01T08:02:38;101164.24;;;15.74;55.30
70916;BME280;58557;50.982;-3.222;2023-05-01T08:05:04;101168.79;;;15.80;54.89
70916;BME280;58557;50.982;-3.222;2023-05-01T08:07:29;101174.92;;;14.88;56.80
70916;BME280;58557;50.982;-3.222;2023-05-01T08:09:54;101175.52;;;13.49;61.52
70916;BME280;58557;50.982;-3.222;2023-05-01T08:12:20;101176.67;;;15.15;57.91
70916;BME280;58557;50.982;-3.222;2023-05-01T08:14:46;101172.33;;;16.32;55.15
70916;BME280;58557;50.982;-3.222;2023-05-01T08:17:12;101174.18;;;15.30;58.63
70916;BME280;58557;50.982;-3.222;2023-05-01T08:19:37;101169.65;;;15.92;57.87
70916;BME280;58557;50.982;-3.222;2023-05-01T08:22:03;101167.46;;;16.39;54.16
70916;BME280;58557;50.982;-3.222;2023-05-01T08:24:29;101168.53;;;16.18;54.02
70916;BME280;58557;50.982;-3.222;2023-05-01T08:26:54;101160.47;;;15.35;54.27
70916;BME280;58557;50.982;-3.222;2023-05-01T08:29:20;101163.34;;;16.27;53.42
70916;BME280;58557;50.982;-3.222;2023-05-01T08:31:46;101160.92;;;15.85;53.19
70916;BME280;58557;50.982;-3.222;2023-05-01T08:34:11;101166.35;;;17.76;48.45
70916;BME280;58557;50.982;-3.222;2023-05-01T08:36:37;101170.70;;;16.97;49.41
70916;BME280;58557;50.982;-3.222;2023-05-01T08:39:03;101178.91;;;16.35;51.88
70916;BME280;58557;50.982;-3.222;2023-05-01T08:41:28;101180.69;;;17.12;51.83
70916;BME280;58557;50.982;-3.222;2023-05-01T08:43:56;101189.46;;;17.96;48.78
70916;BME280;58557;50.982;-3.222;2023-05-01T08:46:24;101188.80;;;16.06;51.19
70916;BME280;58557;50.982;-3.222;2023-05-01T08:48:45;101191.21;;;16.50;52.07
70916;BME280;58557;50.982;-3.222;2023-05-01T08:51:11;101197.40;;;16.81;51.47
70916;BME280;58557;50.982;-3.222;2023-05-01T08:53:37;101198.81;;;15.93;51.64
70916;BME280;58557;50.982;-3.222;2023-05-01T08:56:05;101200.69;;;15.68;52.25
70916;BME280;58557;50.982;-3.222;2023-05-01T08:58:28;101199.77;;;14.99;53.55
70916;BME280;58557;50.982;-3.222;2023-05-01T09:00:53;101198.69;;;15.04;55.29
70916;BME280;58557;50.982;-3.222;2023-05-01T09:03:19;101198.94;;;14.79;55.23
70916;BME280;58557;50.982;-3.222;2023-05-01T09:05:45;101200.88;;;15.00;55.25
70916;BME280;58557;50.982;-3.222;2023-05-01T09:08:10;101199.78;;;14.91;54.85
70916;BME280;58557;50.982;-3.222;2023-05-01T09:10:40;101197.46;;;17.41;48.92
70916;BME280;58557;50.982;-3.222;2023-05-01T09:13:03;101203.35;;;18.02;47.88
70916;BME280;58557;50.982;-3.222;2023-05-01T09:15:28;101214.10;;;15.42;51.56
70916;BME280;58557;50.982;-3.222;2023-05-01T09:17:53;101207.69;;;15.74;50.32
70916;BME280;58557;50.982;-3.222;2023-05-01T09:20:19;101219.90;;;15.13;54.75
70916;BME280;58557;50.982;-3.222;2023-05-01T09:22:44;101213.10;;;16.40;50.36
70916;BME280;58557;50.982;-3.222;2023-05-01T09:25:10;101218.20;;;17.40;47.31
70916;BME280;58557;50.982;-3.222;2023-05-01T09:27:36;101223.61;;;17.33;47.15
70916;BME280;58557;50.982;-3.222;2023-05-01T09:30:02;101225.90;;;18.14;44.70
70916;BME280;58557;50.982;-3.222;2023-05-01T09:32:27;101221.66;;;17.48;46.24
70916;BME280;58557;50.982;-3.222;2023-05-01T09:34:53;101223.87;;;18.90;43.30
70916;BME280;58557;50.982;-3.222;2023-05-01T09:37:26;101225.14;;;19.11;42.06
70916;BME280;58557;50.982;-3.222;2023-05-01T09:39:43;101219.01;;;18.27;43.82
70916;BME280;58557;50.982;-3.222;2023-05-01T09:42:09;101222.85;;;17.70;45.02
70916;BME280;58557;50.982;-3.222;2023-05-01T09:44:40;101213.37;;;18.18;43.61
70916;BME280;58557;50.982;-3.222;2023-05-01T09:47:01;101225.34;;;18.18;44.57
70916;BME280;58557;50.982;-3.222;2023-05-01T09:49:44;101222.55;;;15.99;50.69
70916;BME280;58557;50.982;-3.222;2023-05-01T09:51:52;101226.92;;;17.50;49.19
70916;BME280;58557;50.982;-3.222;2023-05-01T09:54:18;101227.23;;;16.97;48.23
70916;BME280;58557;50.982;-3.222;2023-05-01T09:56:46;101223.40;;;17.20;48.40
70916;BME280;58557;50.982;-3.222;2023-05-01T09:59:16;101228.24;;;18.35;46.42
70916;BME280;58557;50.982;-3.222;2023-05-01T10:01:39;101227.21;;;18.15;45.91
70916;BME280;58557;50.982;-3.222;2023-05-01T10:04:00;101230.21;;;20.26;46.18
70916;BME280;58557;50.982;-3.222;2023-05-01T10:06:26;101233.82;;;19.84;42.32
70916;BME280;58557;50.982;-3.222;2023-05-01T10:08:51;101236.49;;;17.85;42.60
70916;BME280;58557;50.982;-3.222;2023-05-01T10:11:17;101237.72;;;18.06;43.52
70916;BME280;58557;50.982;-3.222;2023-05-01T10:13:42;101236.87;;;17.99;46.81
70916;BME280;58557;50.982;-3.222;2023-05-01T10:18:34;101232.54;;;17.68;46.42
70916;BME280;58557;50.982;-3.222;2023-05-01T10:20:59;101237.09;;;16.25;49.85
70916;BME280;58557;50.982;-3.222;2023-05-01T10:23:25;101240.66;;;17.09;48.70
70916;BME280;58557;50.982;-3.222;2023-05-01T10:25:52;101242.28;;;16.41;48.83
70916;BME280;58557;50.982;-3.222;2023-05-01T10:28:16;101249.01;;;17.68;46.74
70916;BME280;58557;50.982;-3.222;2023-05-01T10:30:43;101246.48;;;16.47;49.46
70916;BME280;58557;50.982;-3.222;2023-05-01T10:33:08;101234.15;;;16.04;50.74
70916;BME280;58557;50.982;-3.222;2023-05-01T10:35:36;101244.81;;;17.70;50.19
70916;BME280;58557;50.982;-3.222;2023-05-01T10:38:01;101242.86;;;16.40;50.44
70916;BME280;58557;50.982;-3.222;2023-05-01T10:40:42;101246.91;;;16.55;50.94
70916;BME280;58557;50.982;-3.222;2023-05-01T10:45:27;101249.45;;;17.01;47.77
70916;BME280;58557;50.982;-3.222;2023-05-01T10:47:44;101249.95;;;18.33;46.82
70916;BME280;58557;50.982;-3.222;2023-05-01T10:50:08;101247.13;;;17.79;47.14
70916;BME280;58557;50.982;-3.222;2023-05-01T11:02:20;101253.11;;;18.27;44.64
70916;BME280;58557;50.982;-3.222;2023-05-01T11:04:49;101250.48;;;19.04;43.42
70916;BME280;58557;50.982;-3.222;2023-05-01T11:07:15;101250.20;;;19.27;42.31
70916;BME280;58557;50.982;-3.222;2023-05-01T11:09:36;101254.56;;;17.86;45.21
70916;BME280;58557;50.982;-3.222;2023-05-01T11:11:58;101253.36;;;16.64;49.53
70916;BME280;58557;50.982;-3.222;2023-05-01T11:14:23;101250.28;;;16.41;48.16
70916;BME280;58557;50.982;-3.222;2023-05-01T11:16:49;101257.83;;;17.34;47.64
70916;BME280;58557;50.982;-3.222;2023-05-01T11:21:40;101253.59;;;17.86;46.39
70916;BME280;58557;50.982;-3.222;2023-05-01T11:24:06;101254.81;;;17.31;46.77
70916;BME280;58557;50.982;-3.222;2023-05-01T11:26:32;101255.16;;;17.26;47.55
70916;BME280;58557;50.982;-3.222;2023-05-01T11:28:58;101259.62;;;17.70;46.47
70916;BME280;58557;50.982;-3.222;2023-05-01T11:31:24;101259.44;;;17.10;46.06
70916;BME280;58557;50.982;-3.222;2023-05-01T11:33:48;101257.84;;;17.26;43.77
70916;BME280;58557;50.982;-3.222;2023-05-01T11:36:14;101255.49;;;17.53;44.94
70916;BME280;58557;50.982;-3.222;2023-05-01T11:38:49;101253.36;;;17.53;44.22
70916;BME280;58557;50.982;-3.222;2023-05-01T11:41:05;101251.28;;;16.73;44.10
70916;BME280;58557;50.982;-3.222;2023-05-01T11:43:31;101259.65;;;16.15;45.17
70916;BME280;58557;50.982;-3.222;2023-05-01T11:45:57;101260.43;;;16.26;46.91
70916;BME280;58557;50.982;-3.222;2023-05-01T11:48:22;101261.63;;;16.44;46.52
70916;BME280;58557;50.982;-3.222;2023-05-01T11:50:48;101258.55;;;17.95;43.84
70916;BME280;58557;50.982;-3.222;2023-05-01T11:53:14;101255.34;;;18.22;43.71
70916;BME280;58557;50.982;-3.222;2023-05-01T11:55:39;101249.51;;;16.65;47.59
70916;BME280;58557;50.982;-3.222;2023-05-01T11:58:04;101254.88;;;16.20;48.81
70916;BME280;58557;50.982;-3.222;2023-05-01T12:00:32;101262.36;;;15.86;49.08
70916;BME280;58557;50.982;-3.222;2023-05-01T12:02:58;101254.61;;;16.68;47.52
70916;BME280;58557;50.982;-3.222;2023-05-01T12:05:22;101257.04;;;17.36;45.82
70916;BME280;58557;50.982;-3.222;2023-05-01T12:07:47;101257.15;;;17.84;44.18
70916;BME280;58557;50.982;-3.222;2023-05-01T12:10:13;101260.36;;;17.78;44.12
70916;BME280;58557;50.982;-3.222;2023-05-01T12:12:38;101254.86;;;17.57;45.46
70916;BME280;58557;50.982;-3.222;2023-05-01T12:15:05;101257.21;;;17.00;43.31
70916;BME280;58557;50.982;-3.222;2023-05-01T12:17:30;101257.30;;;16.52;43.26
70916;BME280;58557;50.982;-3.222;2023-05-01T12:19:55;101258.98;;;16.30;44.64
70916;BME280;58557;50.982;-3.222;2023-05-01T12:22:21;101254.53;;;16.01;46.37
70916;BME280;58557;50.982;-3.222;2023-05-01T12:24:50;101251.71;;;16.51;46.57
70916;BME280;58557;50.982;-3.222;2023-05-01T12:27:12;101241.99;;;16.81;44.57
70916;BME280;58557;50.982;-3.222;2023-05-01T12:29:39;101241.99;;;17.21;44.16
70916;BME280;58557;50.982;-3.222;2023-05-01T12:32:04;101241.20;;;17.80;44.94
70916;BME280;58557;50.982;-3.222;2023-05-01T12:34:29;101233.94;;;17.58;44.09
70916;BME280;58557;50.982;-3.222;2023-05-01T12:36:55;101244.54;;;17.53;43.52
70916;BME280;58557;50.982;-3.222;2023-05-01T12:39:21;101238.50;;;18.00;41.33
70916;BME280;58557;50.982;-3.222;2023-05-01T12:41:47;101243.01;;;18.05;41.83
70916;BME280;58557;50.982;-3.222;2023-05-01T12:44:16;101243.46;;;18.09;41.54
70916;BME280;58557;50.982;-3.222;2023-05-01T12:46:37;101244.64;;;17.88;40.87
70916;BME280;58557;50.982;-3.222;2023-05-01T12:49:02;101242.69;;;17.40;41.66
70916;BME280;58557;50.982;-3.222;2023-05-01T12:51:28;101251.75;;;17.99;42.30
70916;BME280;58557;50.982;-3.222;2023-05-01T12:53:53;101251.82;;;17.65;43.48
70916;BME280;58557;50.982;-3.222;2023-05-01T12:56:20;101251.38;;;18.11;42.01